sensor_id;sensor_type;location;lat;lon;timestamp;P1;durP1;ratioP1;P2;durP2;ratioP2
82374;SDS011;72005;50.496;15.798;2023-08-20T00:01:32;5.65;;;5.03;;
82374;SDS011;72005;50.496;15.798;2023-08-20T00:03:58;8.07;;;4.95;;
82374;SDS011;72005;50.496;15.798;2023-08-20T00:06:24;5.88;;;5.38;;
82374;SDS011;72005;50.496;15.798;2023-08-20T00:08:50;9.82;;;5.53;;
82374;SDS011;72005;50.496;15.798;2023-08-20T00:11:17;6.30;;;5.70;;
82374;SDS011;72005;50.496;15.798;2023-08-20T00:13:42;5.78;;;5.18;;
82374;SDS011;72005;50.496;15.798;2023-08-20T00:16:09;6.00;;;5.25;;
82374;SDS011;72005;50.496;15.798;2023-08-20T00:18:35;5.57;;;4.60;;
82374;SDS011;72005;50.496;15.798;2023-08-20T00:21:01;5.38;;;4.88;;
82374;SDS011;72005;50.496;15.798;2023-08-20T00:23:28;4.75;;;4.35;;
82374;SDS011;72005;50.496;15.798;2023-08-20T00:25:54;5.72;;;4.55;;
82374;SDS011;72005;50.496;15.798;2023-08-20T00:28:20;5.43;;;4.70;;
82374;SDS011;72005;50.496;15.798;2023-08-20T00:30:46;6.32;;;5.03;;
82374;SDS011;72005;50.496;15.798;2023-08-20T00:33:12;5.10;;;4.60;;
82374;SDS011;72005;50.496;15.798;2023-08-20T00:35:38;5.47;;;4.85;;
82374;SDS011;72005;50.496;15.798;2023-08-20T00:38:03;5.03;;;4.63;;
82374;SDS011;72005;50.496;15.798;2023-08-20T00:40:30;6.38;;;5.55;;
82374;SDS011;72005;50.496;15.798;2023-08-20T00:42:56;7.05;;;5.15;;
82374;SDS011;72005;50.496;15.798;2023-08-20T00:45:22;6.75;;;5.20;;
82374;SDS011;72005;50.496;15.798;2023-08-20T00:47:48;5.95;;;4.93;;
82374;SDS011;72005;50.496;15.798;2023-08-20T00:50:14;7.93;;;5.45;;
82374;SDS011;72005;50.496;15.798;2023-08-20T00:52:40;6.78;;;5.30;;
82374;SDS011;72005;50.496;15.798;2023-08-20T00:55:09;6.30;;;5.07;;
82374;SDS011;72005;50.496;15.798;2023-08-20T00:57:36;8.30;;;5.10;;
82374;SDS011;72005;50.496;15.798;2023-08-20T01:00:03;5.40;;;4.78;;
82374;SDS011;72005;50.496;15.798;2023-08-20T01:02:36;5.80;;;4.90;;
82374;SDS011;72005;50.496;15.798;2023-08-20T01:05:03;7.50;;;5.40;;
82374;SDS011;72005;50.496;15.798;2023-08-20T01:13:18;5.20;;;4.70;;
82374;SDS011;72005;50.496;15.798;2023-08-20T01:15:44;5.85;;;4.80;;
82374;SDS011;72005;50.496;15.798;2023-08-20T01:18:10;5.50;;;5.00;;
82374;SDS011;72005;50.496;15.798;2023-08-20T01:20:38;6.25;;;5.18;;
82374;SDS011;72005;50.496;15.798;2023-08-20T01:23:24;5.65;;;5.03;;
82374;SDS011;72005;50.496;15.798;2023-08-20T01:28:38;7.78;;;5.05;;
82374;SDS011;72005;50.496;15.798;2023-08-20T01:31:05;5.45;;;5.05;;
82374;SDS011;72005;50.496;15.798;2023-08-20T01:33:31;5.50;;;5.00;;
82374;SDS011;72005;50.496;15.798;2023-08-20T01:35:57;5.60;;;5.10;;
82374;SDS011;72005;50.496;15.798;2023-08-20T01:38:23;6.10;;;5.22;;
82374;SDS011;72005;50.496;15.798;2023-08-20T01:40:48;6.10;;;5.20;;
82374;SDS011;72005;50.496;15.798;2023-08-20T01:43:14;5.82;;;5.22;;
82374;SDS011;72005;50.496;15.798;2023-08-20T01:45:41;7.03;;;5.55;;
82374;SDS011;72005;50.496;15.798;2023-08-20T01:48:06;7.05;;;6.35;;
82374;SDS011;72005;50.496;15.798;2023-08-20T01:50:33;15.20;;;6.55;;
82374;SDS011;72005;50.496;15.798;2023-08-20T01:53:00;7.90;;;7.07;;
82374;SDS011;72005;50.496;15.798;2023-08-20T01:55:26;9.35;;;6.32;;
82374;SDS011;72005;50.496;15.798;2023-08-20T01:57:52;7.18;;;5.82;;
82374;SDS011;72005;50.496;15.798;2023-08-20T02:00:17;7.07;;;6.38;;
82374;SDS011;72005;50.496;15.798;2023-08-20T02:02:43;10.43;;;5.93;;
82374;SDS011;72005;50.496;15.798;2023-08-20T02:05:09;6.45;;;5.85;;
82374;SDS011;72005;50.496;15.798;2023-08-20T02:07:38;6.78;;;5.22;;
82374;SDS011;72005;50.496;15.798;2023-08-20T02:10:04;10.15;;;5.65;;
82374;SDS011;72005;50.496;15.798;2023-08-20T02:12:30;6.40;;;5.68;;
82374;SDS011;72005;50.496;15.798;2023-08-20T02:14:56;6.55;;;5.93;;
82374;SDS011;72005;50.496;15.798;2023-08-20T02:17:22;6.60;;;5.90;;
82374;SDS011;72005;50.496;15.798;2023-08-20T02:19:49;6.63;;;5.90;;
82374;SDS011;72005;50.496;15.798;2023-08-20T02:22:14;9.85;;;5.50;;
82374;SDS011;72005;50.496;15.798;2023-08-20T02:24:40;11.90;;;6.13;;
82374;SDS011;72005;50.496;15.798;2023-08-20T02:27:06;6.22;;;5.65;;
82374;SDS011;72005;50.496;15.798;2023-08-20T02:29:32;6.97;;;5.85;;
82374;SDS011;72005;50.496;15.798;2023-08-20T02:31:57;7.75;;;5.85;;
82374;SDS011;72005;50.496;15.798;2023-08-20T02:34:23;7.03;;;5.50;;
82374;SDS011;72005;50.496;15.798;2023-08-20T02:36:49;8.00;;;6.03;;
82374;SDS011;72005;50.496;15.798;2023-08-20T02:39:15;6.32;;;5.10;;
82374;SDS011;72005;50.496;15.798;2023-08-20T02:41:42;6.32;;;5.30;;
82374;SDS011;72005;50.496;15.798;2023-08-20T02:44:08;5.90;;;5.30;;
82374;SDS011;72005;50.496;15.798;2023-08-20T02:46:34;8.02;;;5.10;;
82374;SDS011;72005;50.496;15.798;2023-08-20T02:48:59;6.53;;;5.18;;
82374;SDS011;72005;50.496;15.798;2023-08-20T02:51:25;5.88;;;4.90;;
82374;SDS011;72005;50.496;15.798;2023-08-20T02:53:51;5.97;;;5.35;;
82374;SDS011;72005;50.496;15.798;2023-08-20T02:56:17;6.40;;;5.53;;
82374;SDS011;72005;50.496;15.798;2023-08-20T02:58:42;6.13;;;5.10;;
82374;SDS011;72005;50.496;15.798;2023-08-20T03:01:17;6.65;;;5.50;;
82374;SDS011;72005;50.496;15.798;2023-08-20T03:03:44;7.28;;;5.75;;
82374;SDS011;72005;50.496;15.798;2023-08-20T03:06:10;7.78;;;5.25;;
82374;SDS011;72005;50.496;15.798;2023-08-20T03:08:36;5.85;;;5.35;;
82374;SDS011;72005;50.496;15.798;2023-08-20T03:11:01;6.53;;;5.03;;
82374;SDS011;72005;50.496;15.798;2023-08-20T03:13:27;6.68;;;5.82;;
82374;SDS011;72005;50.496;15.798;2023-08-20T03:15:53;6.00;;;5.40;;
82374;SDS011;72005;50.496;15.798;2023-08-20T03:18:19;5.57;;;5.07;;
82374;SDS011;72005;50.496;15.798;2023-08-20T03:20:45;8.95;;;5.47;;
82374;SDS011;72005;50.496;15.798;2023-08-20T03:23:11;6.10;;;5.45;;
82374;SDS011;72005;50.496;15.798;2023-08-20T03:25:37;10.63;;;5.97;;
82374;SDS011;72005;50.496;15.798;2023-08-20T03:28:04;7.28;;;5.28;;
82374;SDS011;72005;50.496;15.798;2023-08-20T03:30:29;8.38;;;5.45;;
82374;SDS011;72005;50.496;15.798;2023-08-20T03:32:57;6.55;;;4.97;;
82374;SDS011;72005;50.496;15.798;2023-08-20T03:35:22;6.13;;;5.03;;
82374;SDS011;72005;50.496;15.798;2023-08-20T03:37:48;5.90;;;5.40;;
82374;SDS011;72005;50.496;15.798;2023-08-20T03:40:14;6.22;;;5.47;;
82374;SDS011;72005;50.496;15.798;2023-08-20T03:42:40;5.57;;;5.07;;
82374;SDS011;72005;50.496;15.798;2023-08-20T03:45:06;5.35;;;4.90;;
82374;SDS011;72005;50.496;15.798;2023-08-20T03:47:32;6.28;;;4.90;;
82374;SDS011;72005;50.496;15.798;2023-08-20T03:49:58;5.30;;;4.80;;
82374;SDS011;72005;50.496;15.798;2023-08-20T03:52:24;5.30;;;4.85;;
82374;SDS011;72005;50.496;15.798;2023-08-20T03:54:49;5.60;;;5.10;;
82374;SDS011;72005;50.496;15.798;2023-08-20T03:57:16;6.03;;;5.43;;
82374;SDS011;72005;50.496;15.798;2023-08-20T03:59:41;8.20;;;5.82;;
82374;SDS011;72005;50.496;15.798;2023-08-20T04:02:07;6.45;;;5.38;;
82374;SDS011;72005;50.496;15.798;2023-08-20T04:04:33;7.80;;;6.07;;
82374;SDS011;72005;50.496;15.798;2023-08-20T04:06:59;6.00;;;5.47;;
82374;SDS011;72005;50.496;15.798;2023-08-20T04:09:24;6.03;;;5.53;;
82374;SDS011;72005;50.496;15.798;2023-08-20T04:11:50;6.57;;;5.97;;
82374;SDS011;72005;50.496;15.798;2023-08-20T04:14:16;8.75;;;6.05;;
82374;SDS011;72005;50.496;15.798;2023-08-20T04:16:42;8.00;;;5.88;;
82374;SDS011;72005;50.496;15.798;2023-08-20T04:19:07;6.55;;;5.72;;
82374;SDS011;72005;50.496;15.798;2023-08-20T04:21:33;6.45;;;5.78;;
82374;SDS011;72005;50.496;15.798;2023-08-20T04:23:59;10.40;;;6.13;;
82374;SDS011;72005;50.496;15.798;2023-08-20T04:26:25;6.82;;;5.70;;
82374;SDS011;72005;50.496;15.798;2023-08-20T04:28:51;6.03;;;5.47;;
82374;SDS011;72005;50.496;15.798;2023-08-20T04:31:17;11.23;;;6.10;;
82374;SDS011;72005;50.496;15.798;2023-08-20T04:33:44;5.90;;;5.40;;
82374;SDS011;72005;50.496;15.798;2023-08-20T04:36:11;7.97;;;5.95;;
82374;SDS011;72005;50.496;15.798;2023-08-20T04:38:37;7.35;;;5.80;;
82374;SDS011;72005;50.496;15.798;2023-08-20T04:41:03;6.35;;;5.75;;
82374;SDS011;72005;50.496;15.798;2023-08-20T04:43:35;8.45;;;5.47;;
82374;SDS011;72005;50.496;15.798;2023-08-20T04:46:01;8.43;;;5.40;;
82374;SDS011;72005;50.496;15.798;2023-08-20T04:48:26;8.10;;;5.40;;
82374;SDS011;72005;50.496;15.798;2023-08-20T04:50:52;6.22;;;5.35;;
82374;SDS011;72005;50.496;15.798;2023-08-20T04:53:18;6.68;;;5.40;;
82374;SDS011;72005;50.496;15.798;2023-08-20T04:55:43;6.45;;;5.15;;
82374;SDS011;72005;50.496;15.798;2023-08-20T04:58:09;5.80;;;5.30;;
82374;SDS011;72005;50.496;15.798;2023-08-20T05:00:35;8.32;;;5.47;;
82374;SDS011;72005;50.496;15.798;2023-08-20T05:03:00;6.50;;;5.68;;
82374;SDS011;72005;50.496;15.798;2023-08-20T05:05:27;5.63;;;5.13;;
82374;SDS011;72005;50.496;15.798;2023-08-20T05:07:52;6.22;;;5.15;;
82374;SDS011;72005;50.496;15.798;2023-08-20T05:10:18;5.72;;;5.03;;
82374;SDS011;72005;50.496;15.798;2023-08-20T05:12:44;5.45;;;4.97;;
82374;SDS011;72005;50.496;15.798;2023-08-20T05:15:10;6.75;;;4.43;;
82374;SDS011;72005;50.496;15.798;2023-08-20T05:17:35;7.00;;;5.03;;
82374;SDS011;72005;50.496;15.798;2023-08-20T05:20:01;5.25;;;4.75;;
82374;SDS011;72005;50.496;15.798;2023-08-20T05:22:27;5.00;;;4.53;;
82374;SDS011;72005;50.496;15.798;2023-08-20T05:24:53;4.78;;;4.38;;
82374;SDS011;72005;50.496;15.798;2023-08-20T05:27:19;5.95;;;4.50;;
82374;SDS011;72005;50.496;15.798;2023-08-20T05:29:44;5.10;;;4.70;;
82374;SDS011;72005;50.496;15.798;2023-08-20T05:32:11;6.00;;;4.50;;
82374;SDS011;72005;50.496;15.798;2023-08-20T05:34:37;6.22;;;4.18;;
82374;SDS011;72005;50.496;15.798;2023-08-20T05:37:03;7.93;;;4.55;;
82374;SDS011;72005;50.496;15.798;2023-08-20T05:39:40;4.40;;;4.00;;
82374;SDS011;72005;50.496;15.798;2023-08-20T05:42:07;6.57;;;4.60;;
82374;SDS011;72005;50.496;15.798;2023-08-20T05:44:33;5.28;;;4.85;;
82374;SDS011;72005;50.496;15.798;2023-08-20T05:46:59;7.07;;;4.70;;
82374;SDS011;72005;50.496;15.798;2023-08-20T05:49:26;6.05;;;4.88;;
82374;SDS011;72005;50.496;15.798;2023-08-20T05:51:52;5.38;;;4.90;;
82374;SDS011;72005;50.496;15.798;2023-08-20T05:54:18;4.72;;;4.32;;
82374;SDS011;72005;50.496;15.798;2023-08-20T05:56:44;5.22;;;4.68;;
82374;SDS011;72005;50.496;15.798;2023-08-20T05:59:10;5.40;;;4.90;;
82374;SDS011;72005;50.496;15.798;2023-08-20T06:01:36;5.03;;;4.57;;
82374;SDS011;72005;50.496;15.798;2023-08-20T06:04:01;6.13;;;4.68;;
82374;SDS011;72005;50.496;15.798;2023-08-20T06:06:27;6.13;;;4.90;;
82374;SDS011;72005;50.496;15.798;2023-08-20T06:08:53;5.05;;;4.55;;
82374;SDS011;72005;50.496;15.798;2023-08-20T06:11:19;6.43;;;5.40;;
82374;SDS011;72005;50.496;15.798;2023-08-20T06:13:45;6.22;;;5.07;;
82374;SDS011;72005;50.496;15.798;2023-08-20T06:16:11;5.88;;;5.35;;
82374;SDS011;72005;50.496;15.798;2023-08-20T06:18:37;6.22;;;4.80;;
82374;SDS011;72005;50.496;15.798;2023-08-20T06:21:03;5.68;;;5.05;;
82374;SDS011;72005;50.496;15.798;2023-08-20T06:23:29;6.43;;;5.20;;
82374;SDS011;72005;50.496;15.798;2023-08-20T06:25:54;7.43;;;4.80;;
82374;SDS011;72005;50.496;15.798;2023-08-20T06:28:20;5.47;;;4.97;;
82374;SDS011;72005;50.496;15.798;2023-08-20T06:30:46;5.35;;;4.63;;
82374;SDS011;72005;50.496;15.798;2023-08-20T06:33:12;5.35;;;4.88;;
82374;SDS011;72005;50.496;15.798;2023-08-20T06:35:38;5.80;;;5.20;;
82374;SDS011;72005;50.496;15.798;2023-08-20T06:38:04;8.73;;;5.10;;
82374;SDS011;72005;50.496;15.798;2023-08-20T06:40:30;5.70;;;4.80;;
82374;SDS011;72005;50.496;15.798;2023-08-20T06:42:56;6.07;;;4.95;;
82374;SDS011;72005;50.496;15.798;2023-08-20T06:45:21;6.30;;;5.00;;
82374;SDS011;72005;50.496;15.798;2023-08-20T06:47:47;5.10;;;4.53;;
82374;SDS011;72005;50.496;15.798;2023-08-20T06:50:13;5.07;;;4.53;;
82374;SDS011;72005;50.496;15.798;2023-08-20T06:52:39;5.13;;;4.68;;
82374;SDS011;72005;50.496;15.798;2023-08-20T06:55:05;6.80;;;4.40;;
82374;SDS011;72005;50.496;15.798;2023-08-20T06:57:31;6.25;;;4.70;;
82374;SDS011;72005;50.496;15.798;2023-08-20T06:59:56;7.30;;;6.07;;
82374;SDS011;72005;50.496;15.798;2023-08-20T07:02:22;4.95;;;4.50;;
82374;SDS011;72005;50.496;15.798;2023-08-20T07:04:48;7.70;;;5.15;;
82374;SDS011;72005;50.496;15.798;2023-08-20T07:07:14;5.82;;;5.20;;
82374;SDS011;72005;50.496;15.798;2023-08-20T07:09:40;9.40;;;5.07;;
82374;SDS011;72005;50.496;15.798;2023-08-20T07:12:07;5.70;;;4.90;;
82374;SDS011;72005;50.496;15.798;2023-08-20T07:14:32;6.10;;;4.80;;
82374;SDS011;72005;50.496;15.798;2023-08-20T07:16:59;9.43;;;5.10;;
82374;SDS011;72005;50.496;15.798;2023-08-20T07:19:25;6.55;;;5.88;;
82374;SDS011;72005;50.496;15.798;2023-08-20T07:21:51;10.68;;;5.95;;
82374;SDS011;72005;50.496;15.798;2023-08-20T07:24:17;20.15;;;5.38;;
82374;SDS011;72005;50.496;15.798;2023-08-20T07:26:43;8.32;;;5.32;;
82374;SDS011;72005;50.496;15.798;2023-08-20T07:29:09;6.82;;;5.80;;
82374;SDS011;72005;50.496;15.798;2023-08-20T07:31:35;5.82;;;5.28;;
82374;SDS011;72005;50.496;15.798;2023-08-20T07:34:01;8.23;;;4.95;;
82374;SDS011;72005;50.496;15.798;2023-08-20T07:36:28;9.05;;;5.53;;
82374;SDS011;72005;50.496;15.798;2023-08-20T07:38:54;5.95;;;5.10;;
82374;SDS011;72005;50.496;15.798;2023-08-20T07:41:20;8.65;;;4.93;;
82374;SDS011;72005;50.496;15.798;2023-08-20T07:43:46;5.00;;;4.50;;
82374;SDS011;72005;50.496;15.798;2023-08-20T07:46:13;6.03;;;4.78;;
82374;SDS011;72005;50.496;15.798;2023-08-20T07:48:40;7.90;;;5.03;;
82374;SDS011;72005;50.496;15.798;2023-08-20T07:51:06;5.13;;;4.72;;
82374;SDS011;72005;50.496;15.798;2023-08-20T07:53:33;4.50;;;4.10;;
82374;SDS011;72005;50.496;15.798;2023-08-20T07:56:00;11.93;;;5.65;;
82374;SDS011;72005;50.496;15.798;2023-08-20T07:58:26;5.95;;;5.22;;
82374;SDS011;72005;50.496;15.798;2023-08-20T08:00:54;7.82;;;5.07;;
82374;SDS011;72005;50.496;15.798;2023-08-20T08:03:20;9.60;;;5.60;;
82374;SDS011;72005;50.496;15.798;2023-08-20T08:05:50;6.10;;;4.97;;
82374;SDS011;72005;50.496;15.798;2023-08-20T08:08:16;6.43;;;4.65;;
82374;SDS011;72005;50.496;15.798;2023-08-20T08:10:43;7.90;;;5.15;;
82374;SDS011;72005;50.496;15.798;2023-08-20T08:13:11;6.75;;;5.30;;
82374;SDS011;72005;50.496;15.798;2023-08-20T08:15:37;5.97;;;4.53;;
82374;SDS011;72005;50.496;15.798;2023-08-20T08:18:03;6.07;;;4.78;;
82374;SDS011;72005;50.496;15.798;2023-08-20T08:20:29;13.07;;;4.85;;
82374;SDS011;72005;50.496;15.798;2023-08-20T08:22:55;5.40;;;4.65;;
82374;SDS011;72005;50.496;15.798;2023-08-20T08:25:21;6.00;;;4.03;;
82374;SDS011;72005;50.496;15.798;2023-08-20T08:27:46;4.13;;;3.83;;
82374;SDS011;72005;50.496;15.798;2023-08-20T08:30:13;4.03;;;3.47;;
82374;SDS011;72005;50.496;15.798;2023-08-20T08:32:40;4.45;;;4.00;;
82374;SDS011;72005;50.496;15.798;2023-08-20T08:35:06;4.10;;;3.70;;
82374;SDS011;72005;50.496;15.798;2023-08-20T08:37:32;4.10;;;3.70;;
82374;SDS011;72005;50.496;15.798;2023-08-20T08:39:58;7.10;;;3.67;;
82374;SDS011;72005;50.496;15.798;2023-08-20T08:42:24;4.20;;;3.40;;
82374;SDS011;72005;50.496;15.798;2023-08-20T08:44:51;3.63;;;3.33;;
82374;SDS011;72005;50.496;15.798;2023-08-20T08:47:21;3.80;;;3.50;;
82374;SDS011;72005;50.496;15.798;2023-08-20T08:49:47;5.10;;;4.57;;
82374;SDS011;72005;50.496;15.798;2023-08-20T08:52:13;4.80;;;4.40;;
82374;SDS011;72005;50.496;15.798;2023-08-20T08:54:40;4.47;;;4.07;;
82374;SDS011;72005;50.496;15.798;2023-08-20T08:57:05;4.25;;;3.85;;
82374;SDS011;72005;50.496;15.798;2023-08-20T08:59:31;4.88;;;3.53;;
82374;SDS011;72005;50.496;15.798;2023-08-20T09:01:57;4.25;;;3.55;;
82374;SDS011;72005;50.496;15.798;2023-08-20T09:04:23;4.43;;;3.70;;
82374;SDS011;72005;50.496;15.798;2023-08-20T09:09:17;4.32;;;4.03;;
82374;SDS011;72005;50.496;15.798;2023-08-20T09:11:44;5.30;;;4.50;;
82374;SDS011;72005;50.496;15.798;2023-08-20T09:14:43;3.80;;;3.47;;
82374;SDS011;72005;50.496;15.798;2023-08-20T09:17:02;4.22;;;3.58;;
82374;SDS011;72005;50.496;15.798;2023-08-20T09:19:28;4.03;;;3.72;;
82374;SDS011;72005;50.496;15.798;2023-08-20T09:22:00;5.88;;;3.92;;
82374;SDS011;72005;50.496;15.798;2023-08-20T09:24:33;5.10;;;3.40;;
82374;SDS011;72005;50.496;15.798;2023-08-20T09:27:04;5.70;;;4.10;;
82374;SDS011;72005;50.496;15.798;2023-08-20T09:29:31;5.85;;;4.00;;
82374;SDS011;72005;50.496;15.798;2023-08-20T09:32:02;4.50;;;4.00;;
82374;SDS011;72005;50.496;15.798;2023-08-20T09:34:37;6.53;;;4.10;;
82374;SDS011;72005;50.496;15.798;2023-08-20T09:37:13;4.03;;;3.72;;
82374;SDS011;72005;50.496;15.798;2023-08-20T09:39:39;4.63;;;4.05;;
82374;SDS011;72005;50.496;15.798;2023-08-20T09:42:06;3.92;;;3.63;;
82374;SDS011;72005;50.496;15.798;2023-08-20T09:44:33;5.93;;;4.38;;
82374;SDS011;72005;50.496;15.798;2023-08-20T09:47:01;4.68;;;4.28;;
82374;SDS011;72005;50.496;15.798;2023-08-20T09:49:48;5.55;;;4.13;;
82374;SDS011;72005;50.496;15.798;2023-08-20T09:52:34;4.43;;;4.03;;
82374;SDS011;72005;50.496;15.798;2023-08-20T09:55:11;5.72;;;4.40;;
82374;SDS011;72005;50.496;15.798;2023-08-20T09:57:41;7.65;;;4.20;;
82374;SDS011;72005;50.496;15.798;2023-08-20T10:00:08;4.78;;;4.38;;
82374;SDS011;72005;50.496;15.798;2023-08-20T10:02:35;6.20;;;5.03;;
82374;SDS011;72005;50.496;15.798;2023-08-20T10:05:02;4.95;;;4.25;;
82374;SDS011;72005;50.496;15.798;2023-08-20T10:07:30;9.30;;;4.38;;
82374;SDS011;72005;50.496;15.798;2023-08-20T10:09:57;4.55;;;4.10;;
82374;SDS011;72005;50.496;15.798;2023-08-20T10:12:28;4.63;;;3.70;;
82374;SDS011;72005;50.496;15.798;2023-08-20T10:14:55;4.82;;;4.43;;
82374;SDS011;72005;50.496;15.798;2023-08-20T10:17:23;5.65;;;4.32;;
82374;SDS011;72005;50.496;15.798;2023-08-20T10:19:51;4.63;;;4.32;;
82374;SDS011;72005;50.496;15.798;2023-08-20T10:22:17;4.82;;;4.43;;
82374;SDS011;72005;50.496;15.798;2023-08-20T10:24:52;4.60;;;4.20;;
82374;SDS011;72005;50.496;15.798;2023-08-20T10:27:27;9.95;;;4.45;;
82374;SDS011;72005;50.496;15.798;2023-08-20T10:29:58;5.72;;;3.65;;
82374;SDS011;72005;50.496;15.798;2023-08-20T10:38:05;8.85;;;4.82;;
82374;SDS011;72005;50.496;15.798;2023-08-20T10:48:38;3.97;;;3.60;;
82374;SDS011;72005;50.496;15.798;2023-08-20T10:51:15;7.28;;;6.45;;
82374;SDS011;72005;50.496;15.798;2023-08-20T10:54:03;4.70;;;4.30;;
82374;SDS011;72005;50.496;15.798;2023-08-20T10:56:54;4.37;;;3.97;;
82374;SDS011;72005;50.496;15.798;2023-08-20T10:59:23;4.32;;;3.90;;
82374;SDS011;72005;50.496;15.798;2023-08-20T11:01:53;5.43;;;4.90;;
82374;SDS011;72005;50.496;15.798;2023-08-20T11:04:20;6.72;;;4.10;;
82374;SDS011;72005;50.496;15.798;2023-08-20T11:06:52;4.95;;;4.40;;
82374;SDS011;72005;50.496;15.798;2023-08-20T11:09:22;7.13;;;4.43;;
82374;SDS011;72005;50.496;15.798;2023-08-20T11:11:50;5.45;;;3.88;;
82374;SDS011;72005;50.496;15.798;2023-08-20T11:14:17;6.20;;;4.50;;
82374;SDS011;72005;50.496;15.798;2023-08-20T11:16:45;13.25;;;4.40;;
82374;SDS011;72005;50.496;15.798;2023-08-20T11:19:12;6.03;;;3.92;;
82374;SDS011;72005;50.496;15.798;2023-08-20T11:21:39;5.30;;;4.30;;
82374;SDS011;72005;50.496;15.798;2023-08-20T11:24:06;4.05;;;3.70;;
82374;SDS011;72005;50.496;15.798;2023-08-20T11:26:32;4.90;;;4.40;;
82374;SDS011;72005;50.496;15.798;2023-08-20T11:29:00;4.85;;;4.00;;
82374;SDS011;72005;50.496;15.798;2023-08-20T11:31:26;7.07;;;4.03;;
82374;SDS011;72005;50.496;15.798;2023-08-20T11:33:51;4.60;;;4.20;;
82374;SDS011;72005;50.496;15.798;2023-08-20T11:36:19;4.00;;;3.70;;
82374;SDS011;72005;50.496;15.798;2023-08-20T11:38:51;7.60;;;4.53;;
82374;SDS011;72005;50.496;15.798;2023-08-20T11:41:18;8.23;;;4.30;;
82374;SDS011;72005;50.496;15.798;2023-08-20T11:43:45;7.05;;;3.60;;
82374;SDS011;72005;50.496;15.798;2023-08-20T11:46:17;4.32;;;3.90;;
82374;SDS011;72005;50.496;15.798;2023-08-20T11:51:37;4.53;;;4.03;;
82374;SDS011;72005;50.496;15.798;2023-08-20T11:54:08;9.65;;;3.65;;
82374;SDS011;72005;50.496;15.798;2023-08-20T11:56:35;4.40;;;4.00;;
82374;SDS011;72005;50.496;15.798;2023-08-20T11:59:01;3.72;;;3.42;;
82374;SDS011;72005;50.496;15.798;2023-08-20T12:01:31;5.22;;;3.60;;
82374;SDS011;72005;50.496;15.798;2023-08-20T12:04:01;5.65;;;3.72;;
82374;SDS011;72005;50.496;15.798;2023-08-20T12:06:29;4.25;;;3.92;;
82374;SDS011;72005;50.496;15.798;2023-08-20T12:08:59;9.27;;;3.70;;
82374;SDS011;72005;50.496;15.798;2023-08-20T12:11:25;5.82;;;3.38;;
82374;SDS011;72005;50.496;15.798;2023-08-20T12:13:53;4.65;;;3.80;;
82374;SDS011;72005;50.496;15.798;2023-08-20T12:16:23;7.35;;;3.35;;
82374;SDS011;72005;50.496;15.798;2023-08-20T12:18:51;4.43;;;3.53;;
82374;SDS011;72005;50.496;15.798;2023-08-20T12:21:18;6.60;;;3.80;;
82374;SDS011;72005;50.496;15.798;2023-08-20T12:23:44;5.07;;;4.10;;
82374;SDS011;72005;50.496;15.798;2023-08-20T12:26:09;3.80;;;3.50;;
82374;SDS011;72005;50.496;15.798;2023-08-20T12:28:35;5.05;;;4.40;;
82374;SDS011;72005;50.496;15.798;2023-08-20T12:31:01;6.13;;;3.85;;
82374;SDS011;72005;50.496;15.798;2023-08-20T12:33:28;3.88;;;3.40;;
82374;SDS011;72005;50.496;15.798;2023-08-20T12:35:54;5.45;;;3.90;;
82374;SDS011;72005;50.496;15.798;2023-08-20T12:38:20;4.03;;;3.67;;
82374;SDS011;72005;50.496;15.798;2023-08-20T12:40:47;4.38;;;3.33;;
82374;SDS011;72005;50.496;15.798;2023-08-20T12:43:12;4.13;;;3.70;;
82374;SDS011;72005;50.496;15.798;2023-08-20T12:45:38;4.22;;;3.83;;
82374;SDS011;72005;50.496;15.798;2023-08-20T12:48:04;3.50;;;3.20;;
82374;SDS011;72005;50.496;15.798;2023-08-20T12:50:32;5.13;;;3.30;;
82374;SDS011;72005;50.496;15.798;2023-08-20T12:52:58;3.33;;;2.85;;
82374;SDS011;72005;50.496;15.798;2023-08-20T12:55:24;4.35;;;3.30;;
82374;SDS011;72005;50.496;15.798;2023-08-20T12:57:54;3.90;;;3.30;;
82374;SDS011;72005;50.496;15.798;2023-08-20T13:00:24;4.13;;;3.70;;
82374;SDS011;72005;50.496;15.798;2023-08-20T13:02:51;3.50;;;3.20;;
82374;SDS011;72005;50.496;15.798;2023-08-20T13:05:18;3.45;;;3.15;;
82374;SDS011;72005;50.496;15.798;2023-08-20T13:07:44;4.80;;;2.72;;
82374;SDS011;72005;50.496;15.798;2023-08-20T13:10:10;6.47;;;2.70;;
82374;SDS011;72005;50.496;15.798;2023-08-20T13:12:37;2.45;;;2.25;;
82374;SDS011;72005;50.496;15.798;2023-08-20T13:15:07;3.30;;;2.13;;
82374;SDS011;72005;50.496;15.798;2023-08-20T13:17:36;3.83;;;2.42;;
82374;SDS011;72005;50.496;15.798;2023-08-20T13:20:09;3.00;;;2.00;;
82374;SDS011;72005;50.496;15.798;2023-08-20T13:22:36;3.67;;;2.17;;
82374;SDS011;72005;50.496;15.798;2023-08-20T13:25:02;3.92;;;2.45;;
82374;SDS011;72005;50.496;15.798;2023-08-20T13:27:30;5.45;;;2.60;;
82374;SDS011;72005;50.496;15.798;2023-08-20T13:29:57;2.85;;;2.47;;
82374;SDS011;72005;50.496;15.798;2023-08-20T13:32:23;4.60;;;2.90;;
82374;SDS011;72005;50.496;15.798;2023-08-20T13:34:49;3.78;;;3.10;;
82374;SDS011;72005;50.496;15.798;2023-08-20T13:37:15;3.22;;;2.83;;
82374;SDS011;72005;50.496;15.798;2023-08-20T13:39:41;4.47;;;2.90;;
82374;SDS011;72005;50.496;15.798;2023-08-20T13:42:07;2.70;;;2.50;;
82374;SDS011;72005;50.496;15.798;2023-08-20T13:44:33;3.10;;;2.80;;
82374;SDS011;72005;50.496;15.798;2023-08-20T13:46:58;6.43;;;3.05;;
82374;SDS011;72005;50.496;15.798;2023-08-20T13:49:25;3.78;;;2.60;;
82374;SDS011;72005;50.496;15.798;2023-08-20T13:51:50;2.58;;;2.38;;
82374;SDS011;72005;50.496;15.798;2023-08-20T13:54:17;6.32;;;2.60;;
82374;SDS011;72005;50.496;15.798;2023-08-20T13:56:42;7.10;;;2.25;;
82374;SDS011;72005;50.496;15.798;2023-08-20T13:59:11;11.75;;;2.83;;
82374;SDS011;72005;50.496;15.798;2023-08-20T14:01:39;10.27;;;2.65;;
82374;SDS011;72005;50.496;15.798;2023-08-20T14:04:22;9.23;;;2.60;;
82374;SDS011;72005;50.496;15.798;2023-08-20T14:06:48;7.57;;;2.28;;
82374;SDS011;72005;50.496;15.798;2023-08-20T14:09:14;8.68;;;2.85;;
82374;SDS011;72005;50.496;15.798;2023-08-20T14:11:42;5.72;;;3.05;;
82374;SDS011;72005;50.496;15.798;2023-08-20T14:14:08;5.63;;;2.35;;
82374;SDS011;72005;50.496;15.798;2023-08-20T14:16:33;5.32;;;2.40;;
82374;SDS011;72005;50.496;15.798;2023-08-20T14:19:00;3.67;;;2.60;;
82374;SDS011;72005;50.496;15.798;2023-08-20T14:21:26;6.28;;;2.88;;
82374;SDS011;72005;50.496;15.798;2023-08-20T14:23:52;2.40;;;2.20;;
82374;SDS011;72005;50.496;15.798;2023-08-20T14:26:17;2.75;;;2.45;;
82374;SDS011;72005;50.496;15.798;2023-08-20T14:28:44;3.88;;;2.88;;
82374;SDS011;72005;50.496;15.798;2023-08-20T14:31:09;2.80;;;2.60;;
82374;SDS011;72005;50.496;15.798;2023-08-20T14:33:35;3.40;;;3.10;;
82374;SDS011;72005;50.496;15.798;2023-08-20T14:36:01;3.95;;;2.70;;
82374;SDS011;72005;50.496;15.798;2023-08-20T14:38:28;3.90;;;2.95;;
82374;SDS011;72005;50.496;15.798;2023-08-20T14:40:58;3.95;;;2.75;;
82374;SDS011;72005;50.496;15.798;2023-08-20T14:43:25;5.07;;;2.83;;
82374;SDS011;72005;50.496;15.798;2023-08-20T14:45:50;2.50;;;2.30;;
82374;SDS011;72005;50.496;15.798;2023-08-20T14:48:16;2.38;;;2.17;;
82374;SDS011;72005;50.496;15.798;2023-08-20T14:50:42;4.40;;;2.90;;
82374;SDS011;72005;50.496;15.798;2023-08-20T14:53:08;4.65;;;2.50;;
82374;SDS011;72005;50.496;15.798;2023-08-20T14:55:34;2.70;;;2.50;;
82374;SDS011;72005;50.496;15.798;2023-08-20T14:57:59;2.45;;;2.22;;
82374;SDS011;72005;50.496;15.798;2023-08-20T15:00:25;2.55;;;2.30;;